Time,TemperatureF,DewpointF,PressureIn,WindDirection,WindDirectionDegrees,WindSpeedMPH,WindSpeedGustMPH,Humidity,HourlyPrecipIn,Conditions,Clouds,dailyrainin,SoftwareType,DateUTC
2013-02-18 00:02:00,17.0,1.0,29.94,SE,134,4.0,19.0,48,0.00,,,0.01,,2013-02-18 05:02:00,
2013-02-18 00:11:00,17.0,1.0,29.94,SE,134,4.0,19.0,48,0.00,,,0.01,,2013-02-18 05:11:00,
2013-02-18 00:21:00,17.0,1.0,29.93,SE,129,4.0,13.0,48,0.00,,,0.01,,2013-02-18 05:21:00,
2013-02-18 00:31:00,17.0,1.0,29.94,South,169,5.0,16.0,48,0.00,,,0.01,,2013-02-18 05:31:00,
2013-02-18 00:41:00,17.0,1.0,29.94,South,169,5.0,16.0,48,0.00,,,0.01,,2013-02-18 05:41:00,
2013-02-18 00:52:00,17.0,1.0,29.94,SSE,148,3.0,13.0,49,0.00,,,0.01,,2013-02-18 05:52:00,
2013-02-18 01:02:00,17.0,1.0,29.94,SSE,153,3.0,8.0,49,0.00,,,0.01,,2013-02-18 06:02:00,
2013-02-18 01:11:00,17.0,1.0,29.94,SSE,153,3.0,8.0,49,0.00,,,0.01,,2013-02-18 06:11:00,
2013-02-18 01:21:00,17.0,2.0,29.94,SSE,154,0.0,5.0,51,0.00,,,0.01,,2013-02-18 06:21:00,
2013-02-18 01:32:00,17.0,1.0,29.93,SE,138,3.0,10.0,49,0.00,,,0.01,,2013-02-18 06:32:00,
2013-02-18 01:41:00,17.0,1.0,29.93,SE,138,3.0,10.0,49,0.00,,,0.01,,2013-02-18 06:41:00,
2013-02-18 01:51:00,18.0,3.0,29.93,SSE,165,0.0,7.0,50,0.00,,,0.01,,2013-02-18 06:51:00,
2013-02-18 02:01:00,18.0,3.0,29.91,SSE,155,2.0,9.0,51,0.00,,,0.01,,2013-02-18 07:01:00,
2013-02-18 02:11:00,18.0,3.0,29.91,SSE,155,2.0,9.0,51,0.00,,,0.01,,2013-02-18 07:11:00,
2013-02-18 02:22:00,18.0,3.0,29.91,South,184,1.0,10.0,52,0.00,,,0.01,,2013-02-18 07:22:00,
2013-02-18 02:32:00,19.0,3.0,29.91,SE,139,0.0,8.0,50,0.00,,,0.01,,2013-02-18 07:32:00,
2013-02-18 02:42:00,19.0,3.0,29.91,SE,139,0.0,8.0,50,0.00,,,0.01,,2013-02-18 07:42:00,
2013-02-18 02:51:00,19.0,3.0,29.90,SSE,154,2.0,10.0,49,0.00,,,0.01,,2013-02-18 07:51:00,
2013-02-18 03:01:00,20.0,4.0,29.89,South,175,1.0,9.0,49,0.00,,,0.01,,2013-02-18 08:01:00,
2013-02-18 03:11:00,20.0,4.0,29.89,South,175,1.0,9.0,49,0.00,,,0.01,,2013-02-18 08:11:00,
2013-02-18 03:21:00,20.0,4.0,29.88,SE,144,1.0,13.0,50,0.00,,,0.01,,2013-02-18 08:21:00,
2013-02-18 03:32:00,21.0,5.0,29.88,South,175,1.0,14.0,49,0.00,,,0.01,,2013-02-18 08:32:00,
2013-02-18 03:42:00,21.0,5.0,29.88,South,175,1.0,14.0,49,0.00,,,0.01,,2013-02-18 08:42:00,
2013-02-18 03:52:00,21.0,6.0,29.86,SSW,192,1.0,9.0,51,0.00,,,0.01,,2013-02-18 08:52:00,
2013-02-18 04:02:00,22.0,9.0,29.85,SSE,163,1.0,10.0,57,0.00,,,0.01,,2013-02-18 09:02:00,
2013-02-18 04:11:00,22.0,9.0,29.85,SSE,163,1.0,10.0,57,0.00,,,0.01,,2013-02-18 09:11:00,
2013-02-18 04:22:00,23.0,11.0,29.84,South,175,1.0,10.0,59,0.00,,,0.01,,2013-02-18 09:22:00,
2013-02-18 04:32:00,23.0,12.0,29.84,South,190,3.0,14.0,61,0.00,,,0.01,,2013-02-18 09:32:00,
2013-02-18 04:42:00,23.0,12.0,29.84,South,190,3.0,14.0,61,0.00,,,0.01,,2013-02-18 09:42:00,
2013-02-18 04:51:00,23.0,14.0,29.82,SSE,154,2.0,14.0,67,0.00,,,0.01,,2013-02-18 09:51:00,
2013-02-18 05:01:00,23.0,16.0,29.81,SE,144,2.0,11.0,73,0.00,,,0.01,,2013-02-18 10:01:00,
2013-02-18 05:11:00,23.0,16.0,29.81,SE,144,2.0,11.0,73,0.00,,,0.01,,2013-02-18 10:11:00,
2013-02-18 05:21:00,23.0,16.0,29.81,SE,144,2.0,11.0,73,0.00,,,0.01,,2013-02-18 10:21:00,
2013-02-18 05:31:00,23.0,17.0,29.78,South,182,2.0,12.0,77,0.00,,,0.01,,2013-02-18 10:31:00,
2013-02-18 05:42:00,23.0,17.0,29.78,South,182,2.0,12.0,77,0.00,,,0.01,,2013-02-18 10:42:00,
2013-02-18 05:53:00,24.0,18.0,29.78,SSE,154,1.0,8.0,78,0.00,,,0.01,,2013-02-18 10:53:00,
2013-02-18 06:01:00,24.0,18.0,29.77,SSE,161,3.0,11.0,79,0.00,,,0.01,,2013-02-18 11:01:00,
2013-02-18 06:11:00,24.0,18.0,29.77,SSE,161,3.0,11.0,79,0.00,,,0.01,,2013-02-18 11:11:00,
2013-02-18 06:22:00,25.0,20.0,29.76,SSE,150,1.0,10.0,80,0.00,,,0.01,,2013-02-18 11:22:00,
2013-02-18 06:32:00,25.0,20.0,29.76,SSE,167,1.0,10.0,81,0.00,,,0.01,,2013-02-18 11:32:00,
2013-02-18 06:42:00,25.0,20.0,29.76,SSE,167,1.0,10.0,81,0.00,,,0.01,,2013-02-18 11:42:00,
2013-02-18 06:52:00,25.0,20.0,29.76,South,183,3.0,12.0,82,0.00,,,0.01,,2013-02-18 11:52:00,
2013-02-18 07:02:00,26.0,22.0,29.75,SSE,155,2.0,11.0,84,0.00,,,0.01,,2013-02-18 12:02:00,
2013-02-18 07:11:00,26.0,22.0,29.75,SSE,155,2.0,11.0,84,0.00,,,0.01,,2013-02-18 12:11:00,
2013-02-18 07:22:00,26.0,22.0,29.75,SSE,155,2.0,11.0,84,0.00,,,0.01,,2013-02-18 12:22:00,
2013-02-18 07:32:00,26.0,22.0,29.73,ENE,63,2.0,10.0,85,0.00,,,0.01,,2013-02-18 12:32:00,
2013-02-18 07:42:00,26.0,22.0,29.73,ENE,63,2.0,10.0,85,0.00,,,0.01,,2013-02-18 12:42:00,
2013-02-18 07:53:00,27.0,23.0,29.72,SSE,157,1.0,8.0,85,0.00,,,0.01,,2013-02-18 12:53:00,
2013-02-18 08:03:00,27.0,23.0,29.71,NNE,24,2.0,13.0,84,0.00,,,0.01,,2013-02-18 13:03:00,
2013-02-18 08:12:00,27.0,23.0,29.71,NNE,24,2.0,13.0,84,0.00,,,0.01,,2013-02-18 13:12:00,
2013-02-18 08:22:00,27.0,23.0,29.71,ESE,119,2.0,10.0,83,0.00,,,0.01,,2013-02-18 13:22:00,
2013-02-18 08:32:00,27.0,22.0,29.70,East,95,4.0,18.0,82,0.00,,,0.01,,2013-02-18 13:32:00,
2013-02-18 08:42:00,27.0,22.0,29.70,East,95,4.0,18.0,82,0.00,,,0.01,,2013-02-18 13:42:00,
2013-02-18 08:53:00,28.0,23.0,29.70,South,182,3.0,14.0,81,0.00,,,0.01,,2013-02-18 13:53:00,
2013-02-18 09:02:00,28.0,23.0,29.69,SSE,154,5.0,12.0,81,0.00,,,0.01,,2013-02-18 14:02:00,
2013-02-18 09:11:00,28.0,23.0,29.69,SSE,154,5.0,12.0,81,0.00,,,0.01,,2013-02-18 14:11:00,
2013-02-18 09:22:00,28.0,22.0,29.68,SE,138,5.0,15.0,79,0.00,,,0.01,,2013-02-18 14:22:00,
2013-02-18 09:42:00,28.0,22.0,29.67,ESE,110,2.0,16.0,78,0.00,,,0.01,,2013-02-18 14:42:00,
2013-02-18 09:53:00,29.0,23.0,29.67,SE,133,3.0,12.0,77,0.00,,,0.01,,2013-02-18 14:53:00,
2013-02-18 10:02:00,29.0,22.0,29.66,South,175,4.0,14.0,76,0.00,,,0.01,,2013-02-18 15:02:00,
2013-02-18 10:11:00,29.0,22.0,29.66,South,175,4.0,14.0,76,0.00,,,0.01,,2013-02-18 15:11:00,
2013-02-18 10:22:00,29.0,22.0,29.65,South,184,3.0,10.0,76,0.00,,,0.01,,2013-02-18 15:22:00,
2013-02-18 10:32:00,30.0,23.0,29.65,SSE,157,2.0,15.0,75,0.00,,,0.01,,2013-02-18 15:32:00,
2013-02-18 10:42:00,30.0,23.0,29.65,SSE,157,2.0,15.0,75,0.00,,,0.01,,2013-02-18 15:42:00,
2013-02-18 10:53:00,30.0,23.0,29.65,SE,131,2.0,13.0,74,0.00,,,0.01,,2013-02-18 15:53:00,
2013-02-18 11:02:00,31.0,23.0,29.64,South,184,4.0,16.0,73,0.00,,,0.01,,2013-02-18 16:02:00,
2013-02-18 11:12:00,31.0,23.0,29.64,South,184,4.0,16.0,73,0.00,,,0.01,,2013-02-18 16:12:00,
2013-02-18 11:22:00,31.0,23.0,29.64,SSE,147,3.0,11.0,73,0.00,,,0.01,,2013-02-18 16:22:00,
2013-02-18 11:32:00,31.0,23.0,29.64,SE,133,3.0,13.0,73,0.00,,,0.01,,2013-02-18 16:32:00,
2013-02-18 11:42:00,31.0,23.0,29.64,SE,133,3.0,13.0,73,0.00,,,0.01,,2013-02-18 16:42:00,
2013-02-18 11:53:00,31.0,23.0,29.63,SSE,163,3.0,11.0,73,0.00,,,0.01,,2013-02-18 16:53:00,
2013-02-18 12:03:00,31.0,24.0,29.62,SW,232,0.0,8.0,74,0.00,,,0.01,,2013-02-18 17:03:00,
2013-02-18 12:12:00,31.0,24.0,29.62,SW,232,0.0,8.0,74,0.00,,,0.01,,2013-02-18 17:12:00,
2013-02-18 12:22:00,31.0,24.0,29.62,SW,232,0.0,8.0,74,0.00,,,0.01,,2013-02-18 17:22:00,
2013-02-18 12:32:00,32.0,24.0,29.60,SE,146,1.0,15.0,73,0.00,,,0.01,,2013-02-18 17:32:00,
2013-02-18 12:42:00,32.0,24.0,29.60,SE,146,1.0,15.0,73,0.00,,,0.01,,2013-02-18 17:42:00,
2013-02-18 12:53:00,32.0,24.0,29.59,SSE,166,1.0,9.0,73,0.00,,,0.01,,2013-02-18 17:53:00,
2013-02-18 13:02:00,32.0,24.0,29.58,SSE,154,2.0,10.0,73,0.00,,,0.01,,2013-02-18 18:02:00,
2013-02-18 13:12:00,32.0,24.0,29.58,SSE,154,2.0,10.0,73,0.00,,,0.01,,2013-02-18 18:12:00,
2013-02-18 13:22:00,33.0,25.0,29.58,SSW,200,1.0,9.0,73,0.00,,,0.00,,2013-02-18 18:22:00,
2013-02-18 13:32:00,33.0,26.0,29.57,South,178,0.0,9.0,74,0.00,,,0.00,,2013-02-18 18:32:00,
2013-02-18 13:42:00,33.0,26.0,29.57,South,178,0.0,9.0,74,0.00,,,0.00,,2013-02-18 18:42:00,
2013-02-18 13:53:00,33.0,26.0,29.57,SSW,195,2.0,8.0,74,0.00,,,0.00,,2013-02-18 18:53:00,
2013-02-18 14:02:00,33.0,26.0,29.56,SSE,161,1.0,7.0,74,0.00,,,0.00,,2013-02-18 19:02:00,
2013-02-18 14:12:00,33.0,26.0,29.56,SSE,161,1.0,7.0,74,0.00,,,0.00,,2013-02-18 19:12:00,
2013-02-18 14:22:00,33.0,26.0,29.55,South,190,2.0,8.0,74,0.00,,,0.00,,2013-02-18 19:22:00,
2013-02-18 14:33:00,33.0,26.0,29.54,SSE,166,1.0,8.0,75,0.00,,,0.00,,2013-02-18 19:33:00,
2013-02-18 14:42:00,33.0,26.0,29.54,SSE,166,1.0,8.0,75,0.00,,,0.00,,2013-02-18 19:42:00,
2013-02-18 14:53:00,34.0,27.0,29.53,South,180,1.0,8.0,76,0.00,,,0.00,,2013-02-18 19:53:00,
2013-02-18 15:02:00,34.0,27.0,29.53,South,169,3.0,11.0,76,0.00,,,0.00,,2013-02-18 20:02:00,
2013-02-18 15:12:00,34.0,27.0,29.53,South,169,3.0,11.0,76,0.00,,,0.00,,2013-02-18 20:12:00,
2013-02-18 15:23:00,34.0,28.0,29.52,SE,144,2.0,7.0,77,0.00,,,0.00,,2013-02-18 20:23:00,
2013-02-18 15:33:00,34.0,28.0,29.52,South,177,1.0,6.0,77,0.00,,,0.00,,2013-02-18 20:33:00,
2013-02-18 15:42:00,34.0,28.0,29.52,South,177,1.0,6.0,77,0.00,,,0.00,,2013-02-18 20:42:00,
2013-02-18 15:53:00,34.0,28.0,29.52,SE,136,0.0,5.0,78,0.00,,,0.00,,2013-02-18 20:53:00,
2013-02-18 16:03:00,34.0,28.0,29.51,SSE,167,2.0,8.0,78,0.00,,,0.00,,2013-02-18 21:03:00,
2013-02-18 16:12:00,34.0,28.0,29.51,SSE,167,2.0,8.0,78,0.00,,,0.00,,2013-02-18 21:12:00,
2013-02-18 16:22:00,34.0,28.0,29.51,SE,142,1.0,7.0,78,0.00,,,0.00,,2013-02-18 21:22:00,
2013-02-18 16:32:00,35.0,29.0,29.50,SE,139,1.0,9.0,78,0.00,,,0.00,,2013-02-18 21:32:00,
2013-02-18 16:42:00,35.0,29.0,29.50,SE,139,1.0,9.0,78,0.00,,,0.00,,2013-02-18 21:42:00,
2013-02-18 17:02:00,35.0,29.0,29.49,SSE,148,3.0,9.0,79,0.00,,,0.00,,2013-02-18 22:02:00,
2013-02-18 17:12:00,35.0,29.0,29.48,SE,130,1.0,10.0,79,0.00,,,0.00,,2013-02-18 22:12:00,
2013-02-18 17:22:00,35.0,29.0,29.48,SE,130,1.0,10.0,79,0.00,,,0.00,,2013-02-18 22:22:00,
2013-02-18 17:33:00,35.0,29.0,29.48,SE,143,1.0,8.0,80,0.00,,,0.00,,2013-02-18 22:33:00,
2013-02-18 17:43:00,35.0,29.0,29.48,SE,143,1.0,8.0,80,0.00,,,0.00,,2013-02-18 22:43:00,
2013-02-18 17:53:00,35.0,29.0,29.49,SSE,163,0.0,9.0,80,0.01,,,0.01,,2013-02-18 22:53:00,
2013-02-18 18:02:00,35.0,30.0,29.49,SE,139,1.0,7.0,81,0.01,,,0.01,,2013-02-18 23:02:00,
2013-02-18 18:12:00,35.0,30.0,29.49,SE,139,1.0,7.0,81,0.01,,,0.01,,2013-02-18 23:12:00,
2013-02-18 18:22:00,35.0,30.0,29.50,SSE,155,1.0,7.0,81,0.01,,,0.01,,2013-02-18 23:22:00,
2013-02-18 18:33:00,35.0,30.0,29.50,SSE,155,1.0,7.0,81,0.01,,,0.01,,2013-02-18 23:33:00,
2013-02-18 18:42:00,35.0,30.0,29.50,SSE,155,1.0,7.0,81,0.01,,,0.01,,2013-02-18 23:42:00,
2013-02-18 18:53:00,34.0,29.0,29.49,SSE,152,0.0,4.0,82,0.00,,,0.01,,2013-02-18 23:53:00,
2013-02-18 19:02:00,34.0,29.0,29.49,SSE,152,0.0,1.0,82,0.01,,,0.02,,2013-02-19 00:02:00,
2013-02-18 19:12:00,34.0,29.0,29.49,SSE,152,0.0,1.0,82,0.01,,,0.02,,2013-02-19 00:12:00,
2013-02-18 19:22:00,34.0,29.0,29.49,SSE,152,0.0,1.0,82,0.01,,,0.02,,2013-02-19 00:22:00,
2013-02-18 19:43:00,34.0,29.0,29.48,SSE,152,0.0,0.0,82,0.01,,,0.02,,2013-02-19 00:43:00,
2013-02-18 19:54:00,34.0,29.0,29.49,SSE,152,0.0,2.0,82,0.01,,,0.02,,2013-02-19 00:54:00,
2013-02-18 20:03:00,34.0,29.0,29.49,SSE,152,0.0,0.0,83,0.00,,,0.02,,2013-02-19 01:03:00,
2013-02-18 20:14:00,34.0,29.0,29.49,SSE,152,0.0,0.0,83,0.00,,,0.02,,2013-02-19 01:14:00,
2013-02-18 20:24:00,34.0,30.0,29.48,SSE,152,0.0,1.0,84,0.00,,,0.02,,2013-02-19 01:24:00,
2013-02-18 20:34:00,34.0,30.0,29.47,SSE,152,0.0,0.0,84,0.01,,,0.03,,2013-02-19 01:34:00,
2013-02-18 20:43:00,34.0,30.0,29.47,SSE,152,0.0,0.0,84,0.01,,,0.03,,2013-02-19 01:43:00,
2013-02-18 20:56:00,34.0,30.0,29.47,SSE,152,0.0,0.0,85,0.01,,,0.03,,2013-02-19 01:56:00,
2013-02-18 21:13:00,33.0,29.0,29.47,SSE,152,0.0,0.0,86,0.01,,,0.03,,2013-02-19 02:13:00,
2013-02-18 21:23:00,33.0,30.0,29.47,SSE,152,0.0,3.0,88,0.01,,,0.03,,2013-02-19 02:23:00,
2013-02-18 21:34:00,32.0,29.0,29.46,SSE,152,0.0,0.0,90,0.00,,,0.03,,2013-02-19 02:34:00,
2013-02-18 21:42:00,32.0,29.0,29.46,SSE,152,0.0,0.0,90,0.00,,,0.03,,2013-02-19 02:42:00,
2013-02-18 21:55:00,32.0,30.0,29.45,SSE,152,0.0,1.0,91,0.00,,,0.03,,2013-02-19 02:55:00,
2013-02-18 22:06:00,32.0,30.0,29.45,SSE,152,0.0,1.0,92,0.00,,,0.03,,2013-02-19 03:06:00,
2013-02-18 22:14:00,32.0,30.0,29.45,SSE,152,0.0,1.0,92,0.00,,,0.03,,2013-02-19 03:14:00,
2013-02-18 22:23:00,32.0,30.0,29.45,SSE,152,0.0,0.0,93,0.00,,,0.03,,2013-02-19 03:23:00,
2013-02-18 22:33:00,32.0,30.0,29.44,SSE,152,0.0,1.0,93,0.00,,,0.03,,2013-02-19 03:33:00,
2013-02-18 22:44:00,32.0,30.0,29.44,SSE,152,0.0,1.0,93,0.00,,,0.03,,2013-02-19 03:44:00,
2013-02-18 22:54:00,32.0,30.0,29.44,NW,315,0.0,4.0,94,0.00,,,0.03,,2013-02-19 03:54:00,
2013-02-18 23:02:00,32.0,30.0,29.44,North,360,0.0,4.0,94,0.00,,,0.03,,2013-02-19 04:02:00,
2013-02-18 23:14:00,32.0,30.0,29.44,North,360,0.0,4.0,94,0.00,,,0.03,,2013-02-19 04:14:00,
2013-02-18 23:23:00,31.0,29.0,29.43,NW,325,1.0,5.0,94,0.00,,,0.03,,2013-02-19 04:23:00,
2013-02-18 23:33:00,31.0,30.0,29.42,NNW,341,1.0,4.0,95,0.00,,,0.03,,2013-02-19 04:33:00,
2013-02-18 23:43:00,31.0,30.0,29.42,NNW,341,1.0,4.0,95,0.00,,,0.03,,2013-02-19 04:43:00,